Time;durP1;ratioP1;P1;durP2;ratioP2;P2;SDS_P1;SDS_P2;PMS_P1;PMS_P2;Temp;Humidity;BMP_temperature;BMP_pressure;BME280_temperature;BME280_humidity;BME280_pressure;Samples;Min_cycle;Max_cycle;Signal;HPM_P1;HPM_P2
2022/11/26 00:00:39;;;;;;;;;;;;;;;10.86;70.44;96216.41;5033789;28;20373;-74
2022/11/26 00:03:04;;;;;;;;;;;;;;;10.64;69.91;96224.00;5049508;28;20063;-74
2022/11/26 00:05:31;;;;;;;;;;;;;;;10.74;70.61;96221.28;5048553;28;20020;-74
2022/11/26 00:07:57;;;;;;;;;;;;;;;10.75;70.00;96222.91;5051021;28;20051;-74
2022/11/26 00:10:25;;;;;;;;;;;;;;;10.72;69.27;96223.44;5048450;28;20014;-74
2022/11/26 00:12:50;;;;;;;;;;;;;;;10.64;70.07;96213.38;5050698;28;20010;-72
2022/11/26 00:15:18;;;;;;;;;;;;;;;10.44;68.50;96214.34;5048157;28;20013;-73
2022/11/26 00:17:43;;;;;;;;;;;;;;;10.34;69.96;96217.84;5049888;28;20020;-72
2022/11/26 00:20:09;;;;;;;;;;;;;;;10.51;70.41;96216.69;5045447;28;20022;-73
2022/11/26 00:22:42;;;;;;;;;;;;;;;10.52;70.12;96215.59;5046172;28;20114;-73
2022/11/26 00:25:16;;;;;;;;;;;;;;;10.41;70.66;96213.00;5043592;28;20018;-74
2022/11/26 00:27:41;;;;;;;;;;;;;;;10.44;69.83;96213.50;5048627;28;20032;-74
2022/11/26 00:30:14;;;;;;;;;;;;;;;10.05;68.60;96223.03;5047059;28;20355;-73
2022/11/26 00:32:39;;;;;;;;;;;;;;;10.28;70.49;96218.94;5041328;28;20018;-74
2022/11/26 00:35:04;;;;;;;;;;;;;;;10.35;70.02;96229.28;5035206;28;20371;-73
2022/11/26 00:37:34;;;;;;;;;;;;;;;10.36;70.77;96229.00;5049006;28;20044;-73
2022/11/26 00:40:00;;;;;;;;;;;;;;;10.19;69.82;96231.22;5045444;28;20113;-74
2022/11/26 00:42:25;;;;;;;;;;;;;;;10.19;70.16;96233.88;5048240;28;20104;-73
2022/11/26 00:44:51;;;;;;;;;;;;;;;10.15;69.83;96238.13;5048096;28;20494;-74
2022/11/26 00:47:16;;;;;;;;;;;;;;;10.03;70.56;96248.28;5049013;28;20013;-73
2022/11/26 00:49:41;;;;;;;;;;;;;;;9.95;70.29;96252.31;5050333;28;20542;-74
2022/11/26 00:52:25;;;;;;;;;;;;;;;9.90;69.96;96250.47;5047616;28;20564;-73
2022/11/26 00:54:50;;;;;;;;;;;;;;;9.87;70.81;96248.34;5049836;28;20006;-73
2022/11/26 00:57:15;;;;;;;;;;;;;;;9.85;70.87;96250.47;5048148;28;20013;-73
2022/11/26 00:59:41;;;;;;;;;;;;;;;9.87;71.00;96251.00;5048106;28;20112;-73
2022/11/26 01:02:06;;;;;;;;;;;;;;;9.95;71.05;96252.31;5048802;28;20496;-73
2022/11/26 01:04:32;;;;;;;;;;;;;;;10.03;71.41;96261.56;5048156;28;20100;-73
2022/11/26 01:06:57;;;;;;;;;;;;;;;10.08;71.14;96259.72;5048147;28;20009;-73
2022/11/26 01:09:22;;;;;;;;;;;;;;;10.09;70.92;96263.16;5047965;28;20017;-73
2022/11/26 01:11:48;;;;;;;;;;;;;;;10.17;71.09;96270.53;5048646;28;20529;-73
2022/11/26 01:14:17;;;;;;;;;;;;;;;10.26;70.73;96270.81;5047637;28;20017;-72
2022/11/26 01:16:43;;;;;;;;;;;;;;;10.25;70.57;96272.69;5048203;28;20383;-74
2022/11/26 01:19:10;;;;;;;;;;;;;;;10.24;70.19;96273.75;5040127;28;20018;-74
2022/11/26 01:21:35;;;;;;;;;;;;;;;10.33;70.47;96280.06;5033117;28;20520;-73
2022/11/26 01:24:00;;;;;;;;;;;;;;;10.10;68.91;96275.38;5041665;28;20013;-74
2022/11/26 01:26:27;;;;;;;;;;;;;;;10.24;70.52;96280.94;5029066;28;20045;-73
2022/11/26 01:28:53;;;;;;;;;;;;;;;10.43;71.25;96275.75;5062181;28;20100;-73
2022/11/26 01:31:23;;;;;;;;;;;;;;;10.52;70.49;96287.44;5047308;28;20014;-74
2022/11/26 01:33:48;;;;;;;;;;;;;;;10.53;70.06;96281.03;5049601;28;20009;-73
2022/11/26 01:36:26;;;;;;;;;;;;;;;10.51;69.97;96283.97;5048343;28;20499;-75
2022/11/26 01:38:51;;;;;;;;;;;;;;;10.58;70.47;96283.66;5049888;28;20044;-75
2022/11/26 01:41:19;;;;;;;;;;;;;;;10.63;70.78;96283.63;5046693;28;20052;-75
2022/11/26 01:43:46;;;;;;;;;;;;;;;10.65;70.02;96284.16;5048589;28;20039;-75
2022/11/26 01:46:15;;;;;;;;;;;;;;;10.67;69.75;96295.31;5048230;28;20020;-75
2022/11/26 01:48:40;;;;;;;;;;;;;;;10.76;70.35;96299.00;5049850;28;20130;-76
2022/11/26 01:51:06;;;;;;;;;;;;;;;10.62;70.02;96298.81;5047087;28;20574;-76
2022/11/26 01:53:44;;;;;;;;;;;;;;;10.66;69.73;96304.38;5048695;28;20016;-75
2022/11/26 01:56:36;;;;;;;;;;;;;;;10.72;69.87;96297.94;5047775;28;20009;-75
2022/11/26 01:59:06;;;;;;;;;;;;;;;10.72;69.95;96297.94;5044255;28;20022;-75
2022/11/26 02:01:32;;;;;;;;;;;;;;;10.73;70.31;96307.50;5037003;28;20014;-75
2022/11/26 02:04:09;;;;;;;;;;;;;;;10.80;70.40;96315.19;5029904;28;20469;-75
2022/11/26 02:06:34;;;;;;;;;;;;;;;10.87;70.39;96303.16;5040579;28;20017;-75
2022/11/26 02:09:01;;;;;;;;;;;;;;;10.87;70.34;96311.16;5048460;28;20006;-74
2022/11/26 02:11:26;;;;;;;;;;;;;;;10.86;69.46;96312.22;5046981;28;20021;-75
2022/11/26 02:13:53;;;;;;;;;;;;;;;10.81;69.47;96306.16;5048764;28;20470;-75
2022/11/26 02:16:28;;;;;;;;;;;;;;;10.82;69.75;96311.19;5048110;28;20020;-75
2022/11/26 02:19:05;;;;;;;;;;;;;;;10.49;67.37;96309.25;5047226;28;20013;-75
2022/11/26 02:21:33;;;;;;;;;;;;;;;10.37;68.92;96312.25;5051477;28;20063;-75
2022/11/26 02:24:17;;;;;;;;;;;;;;;10.37;68.20;96306.91;5051723;28;20012;-75
2022/11/26 02:27:01;;;;;;;;;;;;;;;9.61;67.47;96305.28;5049919;28;20009;-75
2022/11/26 02:29:52;;;;;;;;;;;;;;;9.33;67.71;96309.31;5047599;28;20013;-75
2022/11/26 02:32:20;;;;;;;;;;;;;;;9.83;68.85;96313.75;5032333;28;20104;-75
2022/11/26 02:34:51;;;;;;;;;;;;;;;9.92;68.56;96311.31;5046653;28;20017;-75
2022/11/26 02:37:25;;;;;;;;;;;;;;;10.08;68.77;96320.84;5052737;28;20552;-76
2022/11/26 02:39:50;;;;;;;;;;;;;;;9.59;66.61;96312.72;5049390;28;20058;-75
2022/11/26 02:42:27;;;;;;;;;;;;;;;9.71;68.74;96305.25;5052491;28;20060;-75
2022/11/26 02:44:54;;;;;;;;;;;;;;;10.01;68.81;96308.91;5050142;28;20053;-75
2022/11/26 02:47:19;;;;;;;;;;;;;;;10.14;70.05;96311.00;5049654;28;20490;-75
2022/11/26 02:49:48;;;;;;;;;;;;;;;10.05;67.46;96317.94;5051448;28;20021;-74
2022/11/26 02:52:14;;;;;;;;;;;;;;;10.08;68.64;96312.06;5050079;28;20497;-75
2022/11/26 02:54:39;;;;;;;;;;;;;;;10.20;69.18;96315.22;5048496;28;20159;-75
2022/11/26 02:57:06;;;;;;;;;;;;;;;10.24;69.97;96315.50;5049759;28;20067;-75
2022/11/26 02:59:32;;;;;;;;;;;;;;;10.34;69.40;96321.56;5051035;28;20099;-72
2022/11/26 03:01:59;;;;;;;;;;;;;;;10.27;69.34;96328.25;5050352;28;20064;-71
2022/11/26 03:04:27;;;;;;;;;;;;;;;10.45;69.58;96330.28;5050869;28;20045;-75
2022/11/26 03:06:55;;;;;;;;;;;;;;;10.34;68.75;96328.75;5048086;28;20124;-72
2022/11/26 03:09:21;;;;;;;;;;;;;;;10.39;68.28;96334.06;5050822;28;20168;-75
2022/11/26 03:11:46;;;;;;;;;;;;;;;10.10;69.27;96329.34;5049414;28;20010;-75
2022/11/26 03:14:11;;;;;;;;;;;;;;;10.34;69.36;96334.88;5049028;28;20474;-75
2022/11/26 03:16:36;;;;;;;;;;;;;;;10.07;68.76;96334.41;5050253;28;20095;-74
2022/11/26 03:19:02;;;;;;;;;;;;;;;10.18;68.94;96338.59;5048411;28;20632;-75
2022/11/26 03:21:27;;;;;;;;;;;;;;;10.35;69.96;96340.97;5050684;28;20476;-73
2022/11/26 03:23:52;;;;;;;;;;;;;;;10.03;67.17;96336.00;5050923;28;20017;-75
2022/11/26 03:26:18;;;;;;;;;;;;;;;10.29;69.02;96340.22;5049347;28;20005;-75
2022/11/26 03:28:43;;;;;;;;;;;;;;;10.04;67.21;96338.41;5050452;28;20017;-75
2022/11/26 03:31:08;;;;;;;;;;;;;;;9.70;67.51;96338.22;5048772;28;20523;-75
2022/11/26 03:33:33;;;;;;;;;;;;;;;10.23;69.94;96327.94;5043801;28;20100;-73
2022/11/26 03:35:58;;;;;;;;;;;;;;;10.16;68.65;96335.44;5048728;28;20101;-73
2022/11/26 03:38:24;;;;;;;;;;;;;;;9.93;66.43;96334.19;5048890;28;20020;-72
2022/11/26 03:40:56;;;;;;;;;;;;;;;10.28;68.63;96335.94;5049751;28;20405;-74
2022/11/26 03:43:22;;;;;;;;;;;;;;;10.06;66.60;96338.91;5049038;28;20048;-72
2022/11/26 03:45:47;;;;;;;;;;;;;;;10.10;67.66;96339.97;5048723;28;20063;-72
2022/11/26 03:48:12;;;;;;;;;;;;;;;9.83;68.79;96345.63;5048551;28;20010;-75
2022/11/26 03:50:37;;;;;;;;;;;;;;;10.12;69.52;96337.81;5048996;28;20010;-75
2022/11/26 03:53:03;;;;;;;;;;;;;;;9.97;66.31;96347.72;5050321;28;20014;-74
2022/11/26 03:55:28;;;;;;;;;;;;;;;10.14;67.38;96351.66;5049406;28;20029;-75
2022/11/26 03:57:53;;;;;;;;;;;;;;;10.12;68.13;96359.09;5050008;28;20706;-74
2022/11/26 04:00:18;;;;;;;;;;;;;;;9.62;68.27;96366.13;5050271;28;20066;-75
2022/11/26 04:02:44;;;;;;;;;;;;;;;8.94;69.04;96372.72;5050205;28;20057;-73
2022/11/26 04:05:09;;;;;;;;;;;;;;;8.48;71.09;96369.94;5049921;28;20013;-74
2022/11/26 04:07:34;;;;;;;;;;;;;;;9.06;70.07;96379.41;5048875;28;20501;-74
2022/11/26 04:09:59;;;;;;;;;;;;;;;8.77;70.28;96379.06;5050867;28;20089;-74
2022/11/26 04:12:24;;;;;;;;;;;;;;;8.93;69.57;96377.25;5049885;28;20355;-72
2022/11/26 04:14:50;;;;;;;;;;;;;;;9.69;70.58;96386.31;5050365;28;20005;-72
2022/11/26 04:17:15;;;;;;;;;;;;;;;10.09;70.77;96378.25;5047725;28;20010;-72
2022/11/26 04:19:40;;;;;;;;;;;;;;;9.94;68.17;96388.94;5050149;28;20017;-73
2022/11/26 04:22:05;;;;;;;;;;;;;;;10.22;68.75;96390.19;5049861;28;20049;-73
2022/11/26 04:24:30;;;;;;;;;;;;;;;10.45;70.00;96388.03;5050006;28;20053;-72
2022/11/26 04:26:56;;;;;;;;;;;;;;;10.59;69.54;96394.31;5061695;22;20032;-66
2022/11/26 04:29:21;;;;;;;;;;;;;;;10.59;69.82;96394.31;5054964;28;20020;-63
2022/11/26 04:31:46;;;;;;;;;;;;;;;10.73;69.77;96405.19;5055776;28;20014;-64
2022/11/26 04:34:11;;;;;;;;;;;;;;;10.54;68.58;96403.13;5048508;28;20013;-65
2022/11/26 04:36:38;;;;;;;;;;;;;;;10.35;65.72;96404.81;5048445;28;20347;-64
2022/11/26 04:39:03;;;;;;;;;;;;;;;10.62;68.35;96405.22;5050131;28;20025;-64
2022/11/26 04:41:28;;;;;;;;;;;;;;;10.76;69.07;96408.09;5049463;28;20006;-64
2022/11/26 04:43:54;;;;;;;;;;;;;;;10.66;67.60;96414.25;5049882;28;20013;-64
2022/11/26 04:46:19;;;;;;;;;;;;;;;10.67;68.38;96415.06;5046526;28;20045;-64
2022/11/26 04:48:44;;;;;;;;;;;;;;;10.46;68.00;96419.66;5048302;28;20014;-64
2022/11/26 04:51:09;;;;;;;;;;;;;;;10.08;66.39;96426.38;5047693;28;20010;-64
2022/11/26 04:53:34;;;;;;;;;;;;;;;10.15;67.19;96426.91;5049973;28;20016;-64
2022/11/26 04:55:59;;;;;;;;;;;;;;;10.31;68.54;96435.66;5048450;28;20017;-64
2022/11/26 04:58:25;;;;;;;;;;;;;;;9.96;66.52;96429.31;5048007;28;20013;-64
2022/11/26 05:00:50;;;;;;;;;;;;;;;9.31;67.18;96439.66;5047681;28;20013;-64
2022/11/26 05:03:15;;;;;;;;;;;;;;;9.68;68.72;96438.66;5049674;28;20075;-64
2022/11/26 05:05:40;;;;;;;;;;;;;;;9.67;67.90;96439.69;5046691;28;20486;-64
2022/11/26 05:08:06;;;;;;;;;;;;;;;9.86;68.67;96445.28;5049965;28;20013;-64
2022/11/26 05:10:31;;;;;;;;;;;;;;;9.61;69.12;96446.06;5048054;28;20489;-64
2022/11/26 05:12:56;;;;;;;;;;;;;;;9.61;68.19;96448.72;5049619;28;20060;-64
2022/11/26 05:15:21;;;;;;;;;;;;;;;10.05;68.62;96443.66;5046981;28;20023;-64
2022/11/26 05:17:47;;;;;;;;;;;;;;;9.81;66.61;96448.72;5048285;28;20020;-64
2022/11/26 05:20:13;;;;;;;;;;;;;;;10.18;68.17;96452.16;5047517;28;20040;-64
2022/11/26 05:22:39;;;;;;;;;;;;;;;9.91;67.39;96455.91;5049294;28;20053;-64
2022/11/26 05:25:04;;;;;;;;;;;;;;;9.93;67.51;96458.28;5046172;28;20060;-64
2022/11/26 05:27:29;;;;;;;;;;;;;;;9.73;65.97;96467.88;5045845;28;20018;-64
2022/11/26 05:29:54;;;;;;;;;;;;;;;9.94;66.72;96460.69;5047938;28;20014;-64
2022/11/26 05:32:20;;;;;;;;;;;;;;;9.23;67.70;96469.41;5048242;28;20009;-64
2022/11/26 05:34:45;;;;;;;;;;;;;;;9.32;68.18;96470.50;5047980;28;20057;-64
2022/11/26 05:37:10;;;;;;;;;;;;;;;8.54;70.17;96477.63;5048123;28;20035;-64
2022/11/26 05:39:35;;;;;;;;;;;;;;;8.87;70.40;96479.13;5047445;28;20018;-64
2022/11/26 05:42:00;;;;;;;;;;;;;;;8.59;70.21;96489.06;5047561;28;20100;-63
2022/11/26 05:44:26;;;;;;;;;;;;;;;8.39;70.80;96496.13;5048276;28;20014;-64
2022/11/26 05:46:51;;;;;;;;;;;;;;;8.60;70.59;96489.88;5044764;28;20020;-63
2022/11/26 05:49:16;;;;;;;;;;;;;;;8.24;72.29;96494.13;5049183;28;20013;-63
2022/11/26 05:51:41;;;;;;;;;;;;;;;8.98;70.87;96487.91;5044927;28;20005;-64
2022/11/26 05:54:08;;;;;;;;;;;;;;;8.48;70.47;96494.56;5029222;28;20013;-64
2022/11/26 05:56:33;;;;;;;;;;;;;;;8.30;70.88;96493.13;5040917;28;20048;-64
2022/11/26 05:58:59;;;;;;;;;;;;;;;8.71;71.06;96496.84;5051548;28;20064;-64
2022/11/26 06:01:24;;;;;;;;;;;;;;;8.71;70.06;96494.19;5051973;28;20025;-64
2022/11/26 06:03:49;;;;;;;;;;;;;;;8.61;70.26;96496.78;5051515;28;20044;-65
2022/11/26 06:06:14;;;;;;;;;;;;;;;9.16;68.72;96491.94;5049531;28;20053;-65
2022/11/26 06:08:39;;;;;;;;;;;;;;;9.19;69.84;96494.06;5052739;28;20104;-64
2022/11/26 06:11:05;;;;;;;;;;;;;;;9.00;68.87;96501.72;5050424;28;20020;-65
2022/11/26 06:13:30;;;;;;;;;;;;;;;8.73;70.01;96504.53;5051585;28;20061;-64
2022/11/26 06:15:55;;;;;;;;;;;;;;;9.09;69.46;96508.91;5050781;28;20013;-64
2022/11/26 06:18:20;;;;;;;;;;;;;;;8.73;70.12;96513.28;5050149;28;20394;-64
2022/11/26 06:20:46;;;;;;;;;;;;;;;8.47;70.51;96522.94;5051578;28;20455;-64
2022/11/26 06:23:11;;;;;;;;;;;;;;;8.74;69.18;96516.72;5052777;28;20006;-64
2022/11/26 06:25:38;;;;;;;;;;;;;;;8.40;71.47;96518.94;5048442;28;20014;-64
2022/11/26 06:28:04;;;;;;;;;;;;;;;8.20;71.87;96519.56;5049379;28;20017;-65
2022/11/26 06:30:29;;;;;;;;;;;;;;;8.53;71.12;96519.28;5051450;28;20017;-64
2022/11/26 06:32:55;;;;;;;;;;;;;;;8.40;71.62;96519.75;5052243;28;20062;-65
2022/11/26 06:35:20;;;;;;;;;;;;;;;8.50;70.24;96516.34;5050077;28;20182;-64
2022/11/26 06:37:45;;;;;;;;;;;;;;;9.10;69.37;96509.72;5051277;28;20096;-64
2022/11/26 06:40:15;;;;;;;;;;;;;;;8.13;72.38;96511.03;5048372;28;20024;-64
2022/11/26 06:42:40;;;;;;;;;;;;;;;8.14;72.06;96525.88;5050961;28;20014;-64
2022/11/26 06:45:05;;;;;;;;;;;;;;;7.95;72.40;96534.22;5050750;28;21021;-64
2022/11/26 06:47:30;;;;;;;;;;;;;;;7.82;72.73;96538.06;5046129;28;20010;-64
2022/11/26 06:49:55;;;;;;;;;;;;;;;8.49;71.32;96535.94;5052106;28;20006;-64
2022/11/26 06:52:21;;;;;;;;;;;;;;;8.26;70.92;96543.19;5049947;28;20059;-65
2022/11/26 06:54:46;;;;;;;;;;;;;;;8.02;71.18;96544.59;5050128;28;20979;-64
2022/11/26 06:57:11;;;;;;;;;;;;;;;8.02;72.76;96541.94;5051743;28;20395;-64
2022/11/26 06:59:36;;;;;;;;;;;;;;;8.60;70.25;96542.94;5049420;28;20393;-64
2022/11/26 07:02:02;;;;;;;;;;;;;;;8.70;69.28;96545.66;5050397;28;20014;-64
2022/11/26 07:04:27;;;;;;;;;;;;;;;8.66;68.36;96549.06;5050397;28;20009;-64
2022/11/26 07:06:52;;;;;;;;;;;;;;;8.51;69.01;96555.88;5047501;28;20050;-65
2022/11/26 07:09:17;;;;;;;;;;;;;;;8.32;69.30;96554.63;5051778;28;20048;-65
2022/11/26 07:11:42;;;;;;;;;;;;;;;8.22;69.83;96552.72;5049130;28;20458;-66
2022/11/26 07:14:08;;;;;;;;;;;;;;;8.67;68.85;96548.78;5051768;28;20708;-65
2022/11/26 07:16:34;;;;;;;;;;;;;;;8.96;68.89;96556.38;5039929;28;20024;-65
2022/11/26 07:18:59;;;;;;;;;;;;;;;9.26;68.25;96559.13;5051235;28;20124;-65
2022/11/26 07:21:25;;;;;;;;;;;;;;;9.19;67.59;96555.94;5049743;28;20010;-65
2022/11/26 07:23:51;;;;;;;;;;;;;;;9.54;68.08;96551.78;5051552;28;20028;-65
2022/11/26 07:26:17;;;;;;;;;;;;;;;9.73;67.02;96560.09;5049362;28;20037;-64
2022/11/26 07:28:42;;;;;;;;;;;;;;;9.21;65.47;96560.97;5050230;28;20059;-64
2022/11/26 07:31:09;;;;;;;;;;;;;;;9.33;65.22;96566.88;5049739;28;20104;-65
2022/11/26 07:33:34;;;;;;;;;;;;;;;9.01;66.56;96581.09;5050174;28;20009;-65
2022/11/26 07:36:01;;;;;;;;;;;;;;;9.04;66.13;96577.09;5047883;28;20093;-66
2022/11/26 07:38:27;;;;;;;;;;;;;;;8.64;67.60;96581.13;5051401;28;20060;-67
2022/11/26 07:40:53;;;;;;;;;;;;;;;9.05;67.93;96584.81;5047954;28;20022;-66
2022/11/26 07:43:18;;;;;;;;;;;;;;;9.54;67.58;96576.50;5051220;28;20017;-69
2022/11/26 07:45:43;;;;;;;;;;;;;;;9.57;64.60;96573.34;5049567;28;20010;-67
2022/11/26 07:48:08;;;;;;;;;;;;;;;10.16;68.09;96577.38;5050459;28;20037;-67
2022/11/26 07:50:33;;;;;;;;;;;;;;;10.15;63.71;96581.13;5049165;28;20021;-67
2022/11/26 07:52:58;;;;;;;;;;;;;;;9.75;64.91;96595.16;5049422;28;20036;-67
2022/11/26 07:55:24;;;;;;;;;;;;;;;10.23;65.47;96591.19;5049579;28;20044;-67
2022/11/26 07:57:49;;;;;;;;;;;;;;;9.78;64.96;96586.66;5031779;28;20014;-67
2022/11/26 08:00:14;;;;;;;;;;;;;;;8.96;66.09;96596.19;5046915;28;20399;-67
2022/11/26 08:02:40;;;;;;;;;;;;;;;9.75;65.52;96595.94;5040804;28;20036;-67
2022/11/26 08:05:05;;;;;;;;;;;;;;;9.86;64.01;96594.91;5038843;28;20135;-67
2022/11/26 08:07:30;;;;;;;;;;;;;;;10.23;64.31;96588.53;5049039;28;20014;-67
2022/11/26 08:09:55;;;;;;;;;;;;;;;10.39;62.67;96600.84;5050666;28;20059;-66
2022/11/26 08:12:21;;;;;;;;;;;;;;;10.34;62.94;96603.50;5049407;28;20013;-66
2022/11/26 08:14:46;;;;;;;;;;;;;;;10.45;62.88;96600.84;5050333;28;20010;-66
2022/11/26 08:17:11;;;;;;;;;;;;;;;9.83;63.34;96610.59;5035580;28;20018;-66
2022/11/26 08:19:36;;;;;;;;;;;;;;;9.66;64.95;96612.66;5030364;28;20058;-66
2022/11/26 08:22:01;;;;;;;;;;;;;;;9.67;64.13;96611.59;5045031;28;20013;-64
2022/11/26 08:24:27;;;;;;;;;;;;;;;9.58;65.53;96609.47;5049151;28;20537;-67
2022/11/26 08:26:52;;;;;;;;;;;;;;;9.83;63.43;96608.72;5046810;28;20018;-65
2022/11/26 08:29:17;;;;;;;;;;;;;;;9.91;64.01;96610.06;5048500;28;20014;-64
2022/11/26 08:31:43;;;;;;;;;;;;;;;9.79;64.79;96606.84;5043870;28;20009;-64
2022/11/26 08:34:13;;;;;;;;;;;;;;;9.96;63.46;96614.59;5046741;28;20014;-66
2022/11/26 08:36:38;;;;;;;;;;;;;;;9.97;63.74;96616.19;5051339;28;20547;-65
2022/11/26 08:39:03;;;;;;;;;;;;;;;9.55;65.12;96617.94;5061150;28;20009;-67
2022/11/26 08:41:28;;;;;;;;;;;;;;;10.15;64.47;96616.47;5036481;28;20639;-66
2022/11/26 08:43:53;;;;;;;;;;;;;;;10.37;62.26;96615.44;5048282;28;20056;-64
2022/11/26 08:46:20;;;;;;;;;;;;;;;10.32;62.68;96618.91;5047280;28;20474;-64
2022/11/26 08:48:45;;;;;;;;;;;;;;;9.98;63.94;96620.44;5048546;28;20016;-64
2022/11/26 08:51:11;;;;;;;;;;;;;;;10.12;62.98;96616.19;5048746;28;20100;-63
2022/11/26 08:53:36;;;;;;;;;;;;;;;9.99;65.30;96619.38;5050094;28;20010;-64
2022/11/26 08:56:03;;;;;;;;;;;;;;;10.18;63.78;96624.97;5048300;28;20020;-63
2022/11/26 08:58:28;;;;;;;;;;;;;;;10.42;62.37;96618.09;5047066;28;20021;-63
2022/11/26 09:00:54;;;;;;;;;;;;;;;10.67;62.08;96626.06;5046992;28;20018;-64
2022/11/26 09:03:19;;;;;;;;;;;;;;;10.10;65.16;96629.75;5047551;28;20014;-64
2022/11/26 09:05:44;;;;;;;;;;;;;;;10.51;63.37;96629.81;5047063;28;20049;-65
2022/11/26 09:08:10;;;;;;;;;;;;;;;9.82;65.14;96633.69;5044446;28;20115;-64
2022/11/26 09:10:37;;;;;;;;;;;;;;;10.39;64.57;96632.75;5043107;28;20474;-65
2022/11/26 09:13:02;;;;;;;;;;;;;;;10.27;66.91;96645.50;5065079;28;20017;-64
2022/11/26 09:15:27;;;;;;;;;;;;;;;9.86;64.30;96653.38;5048381;28;20375;-64
2022/11/26 09:17:53;;;;;;;;;;;;;;;9.28;66.90;96660.59;5048776;28;20543;-63
2022/11/26 09:20:18;;;;;;;;;;;;;;;9.80;65.81;96659.72;5048197;28;20374;-64
2022/11/26 09:22:44;;;;;;;;;;;;;;;9.79;64.98;96662.66;5050069;28;20481;-65
2022/11/26 09:25:09;;;;;;;;;;;;;;;9.68;66.53;96666.34;5048153;28;20013;-65
2022/11/26 09:27:34;;;;;;;;;;;;;;;10.17;65.06;96664.06;5050060;28;20067;-64
2022/11/26 09:30:00;;;;;;;;;;;;;;;11.37;65.20;96668.81;5050900;28;20055;-64
2022/11/26 09:32:26;;;;;;;;;;;;;;;10.68;63.72;96672.91;5052877;28;20005;-64
2022/11/26 09:34:51;;;;;;;;;;;;;;;10.58;63.07;96682.75;5052388;28;20017;-65
2022/11/26 09:37:17;;;;;;;;;;;;;;;10.25;64.45;96676.88;5054075;28;20108;-65
2022/11/26 09:39:42;;;;;;;;;;;;;;;9.98;64.51;96678.91;5050583;28;20060;-66
2022/11/26 09:42:19;;;;;;;;;;;;;;;9.46;65.69;96685.09;5053416;28;20060;-65
2022/11/26 09:45:03;;;;;;;;;;;;;;;9.52;65.59;96686.72;5052307;28;20035;-65
2022/11/26 09:47:37;;;;;;;;;;;;;;;9.99;64.28;96683.97;5053777;28;20009;-65
2022/11/26 09:50:11;;;;;;;;;;;;;;;9.54;67.09;96687.28;5053832;28;20056;-65
2022/11/26 09:52:55;;;;;;;;;;;;;;;10.04;65.42;96681.34;5053697;28;20041;-65
2022/11/26 09:55:25;;;;;;;;;;;;;;;10.32;65.07;96679.28;5037797;28;20010;-67
2022/11/26 09:58:01;;;;;;;;;;;;;;;10.03;64.69;96678.91;5032915;28;20006;-64
2022/11/26 10:00:29;;;;;;;;;;;;;;;10.09;64.01;96681.34;5031740;28;20018;-67
2022/11/26 10:02:55;;;;;;;;;;;;;;;10.67;62.94;96681.16;5031620;28;20017;-68
2022/11/26 10:05:21;;;;;;;;;;;;;;;10.21;63.38;96678.44;5043506;28;20014;-67
2022/11/26 10:08:00;;;;;;;;;;;;;;;9.87;64.85;96670.91;5049306;28;20044;-66
2022/11/26 10:10:44;;;;;;;;;;;;;;;9.25;66.65;96679.69;5052517;28;20012;-67
2022/11/26 10:13:19;;;;;;;;;;;;;;;10.04;65.52;96669.91;5031982;28;20095;-66
2022/11/26 10:15:53;;;;;;;;;;;;;;;9.56;65.97;96677.97;5035275;28;20064;-67
2022/11/26 10:18:22;;;;;;;;;;;;;;;9.72;66.25;96668.19;5049912;28;20043;-67
2022/11/26 10:21:01;;;;;;;;;;;;;;;9.57;66.50;96670.78;5050718;28;20032;-67
2022/11/26 10:23:31;;;;;;;;;;;;;;;9.60;65.80;96676.41;5052268;28;20545;-67
2022/11/26 10:26:15;;;;;;;;;;;;;;;9.56;66.15;96677.97;5049139;28;20013;-67
2022/11/26 10:28:48;;;;;;;;;;;;;;;9.39;66.23;96677.38;5052571;28;20013;-67
2022/11/26 10:31:24;;;;;;;;;;;;;;;9.60;67.11;96678.25;5076799;22;20025;-66
2022/11/26 10:33:52;;;;;;;;;;;;;;;9.87;65.09;96670.09;5071852;28;20147;-67
2022/11/26 10:36:21;;;;;;;;;;;;;;;9.99;65.11;96672.56;5069549;28;20013;-66
2022/11/26 10:38:47;;;;;;;;;;;;;;;10.74;64.44;96668.38;5071933;28;20059;-65
2022/11/26 10:41:13;;;;;;;;;;;;;;;10.76;61.91;96663.59;5069298;28;20021;-65
2022/11/26 10:43:38;;;;;;;;;;;;;;;10.52;63.68;96665.19;5070627;28;20013;-65
2022/11/26 10:46:03;;;;;;;;;;;;;;;10.68;63.55;96664.94;5070548;28;20014;-65
2022/11/26 10:48:32;;;;;;;;;;;;;;;9.92;64.03;96667.47;5071375;28;20017;-64
2022/11/26 10:51:05;;;;;;;;;;;;;;;9.66;66.35;96666.59;5071112;28;20013;-65
2022/11/26 10:53:34;;;;;;;;;;;;;;;9.04;67.53;96672.66;5072149;28;20012;-65
2022/11/26 10:56:02;;;;;;;;;;;;;;;10.05;66.34;96666.19;5070650;28;20087;-67
2022/11/26 10:58:37;;;;;;;;;;;;;;;9.16;65.58;96537.84;5072279;28;20005;-67
2022/11/26 11:01:03;;;;;;;;;;;;;;;9.27;67.67;96661.66;5065295;28;20024;-64
2022/11/26 11:03:33;;;;;;;;;;;;;;;10.00;66.28;96656.34;5059315;28;20108;-66
2022/11/26 11:06:22;;;;;;;;;;;;;;;10.82;63.15;96657.22;5070865;28;20533;-66
2022/11/26 11:08:49;;;;;;;;;;;;;;;10.74;63.36;96652.41;5071897;28;20092;-68
2022/11/26 11:11:25;;;;;;;;;;;;;;;11.13;63.69;96639.31;5071870;28;20009;-68
2022/11/26 11:13:50;;;;;;;;;;;;;;;11.16;64.20;96641.44;5071292;28;20013;-67
2022/11/26 11:16:25;;;;;;;;;;;;;;;11.84;64.55;96632.94;5071189;28;20067;-66
2022/11/26 11:18:53;;;;;;;;;;;;;;;11.40;61.92;96640.81;5068952;28;20122;-66
2022/11/26 11:21:19;;;;;;;;;;;;;;;11.99;61.62;96634.72;5064051;28;20014;-67
2022/11/26 11:23:44;;;;;;;;;;;;;;;11.39;61.44;96636.56;5051790;28;20489;-66
2022/11/26 11:26:15;;;;;;;;;;;;;;;10.92;60.88;96627.91;5063051;28;20013;-66
2022/11/26 11:28:45;;;;;;;;;;;;;;;11.06;61.47;96633.47;5070602;28;20013;-68
2022/11/26 11:31:12;;;;;;;;;;;;;;;11.75;63.31;96628.41;5068287;28;20513;-67
2022/11/26 11:33:37;;;;;;;;;;;;;;;12.06;61.54;96626.41;5069108;28;20020;-67
2022/11/26 11:36:04;;;;;;;;;;;;;;;11.29;59.89;96625.94;5068227;28;20014;-68
2022/11/26 11:38:31;;;;;;;;;;;;;;;11.42;61.50;96623.50;5065687;28;20074;-68
2022/11/26 11:40:57;;;;;;;;;;;;;;;11.47;59.68;96621.91;5068507;28;20013;-68
2022/11/26 11:43:23;;;;;;;;;;;;;;;11.04;60.85;96619.63;5069314;28;20016;-66
2022/11/26 11:45:54;;;;;;;;;;;;;;;11.52;61.22;96614.69;5068322;28;20108;-65
2022/11/26 11:48:42;;;;;;;;;;;;;;;12.03;60.88;96624.28;5070352;28;20116;-66
2022/11/26 11:51:28;;;;;;;;;;;;;;;11.06;61.05;96635.34;5070111;28;20017;-66
2022/11/26 11:54:16;;;;;;;;;;;;;;;11.16;60.23;96635.31;5070695;28;20102;-67
2022/11/26 11:56:52;;;;;;;;;;;;;;;10.73;61.80;96634.84;5067704;28;20009;-68
2022/11/26 11:59:18;;;;;;;;;;;;;;;11.40;60.67;96630.16;5069275;28;20013;-67
2022/11/26 12:02:01;;;;;;;;;;;;;;;11.14;60.96;96630.25;5067003;28;20024;-67
2022/11/26 12:04:27;;;;;;;;;;;;;;;11.15;60.53;96625.72;5068235;28;20469;-68
2022/11/26 12:06:57;;;;;;;;;;;;;;;11.29;60.93;96625.94;5069820;28;20064;-66
2022/11/26 12:09:23;;;;;;;;;;;;;;;12.23;58.41;96627.63;5070098;28;20033;-66
2022/11/26 12:11:56;;;;;;;;;;;;;;;12.82;59.48;96623.13;5069762;28;20025;-66
2022/11/26 12:14:31;;;;;;;;;;;;;;;11.54;58.12;96627.72;5060243;28;20371;-67
2022/11/26 12:16:59;;;;;;;;;;;;;;;11.48;58.94;96628.81;5063168;28;20020;-67
2022/11/26 12:19:29;;;;;;;;;;;;;;;12.47;58.65;96629.59;5068480;28;20374;-66
2022/11/26 12:22:03;;;;;;;;;;;;;;;12.77;57.76;96636.53;5067258;28;20469;-67
2022/11/26 12:24:28;;;;;;;;;;;;;;;11.77;58.59;96634.25;5070896;28;20009;-69
2022/11/26 12:27:01;;;;;;;;;;;;;;;11.65;57.62;96635.38;5068725;28;20020;-65
2022/11/26 12:29:32;;;;;;;;;;;;;;;11.74;59.21;96638.28;5069814;28;20397;-64
2022/11/26 12:32:13;;;;;;;;;;;;;;;12.06;58.16;96639.75;5063050;28;20026;-65
2022/11/26 12:34:50;;;;;;;;;;;;;;;11.97;57.76;96644.84;5059151;28;20111;-65
2022/11/26 12:37:19;;;;;;;;;;;;;;;11.34;59.28;96644.59;5067636;28;20020;-64
2022/11/26 12:39:44;;;;;;;;;;;;;;;11.74;58.32;96634.84;5067876;28;20020;-64
2022/11/26 12:42:23;;;;;;;;;;;;;;;10.84;60.35;96646.28;5069729;28;20017;-65
2022/11/26 12:44:50;;;;;;;;;;;;;;;11.10;59.75;96637.19;5070407;28;20031;-66
2022/11/26 12:47:25;;;;;;;;;;;;;;;10.37;61.01;96642.84;5066904;28;20017;-65
2022/11/26 12:50:02;;;;;;;;;;;;;;;10.71;60.33;96647.63;5068714;28;20124;-66
2022/11/26 12:52:47;;;;;;;;;;;;;;;10.61;60.29;96639.66;5067040;28;20051;-66